Terminal Aerodrome Forecast
Issued by NWS

Home | Current Version | Previous Version | Text Only | Print | Product List | Glossary On
Versions: 1 2 3 4 5 6 7 8 9 10 11 12
128
FTUS44 KTSA 252320
TAFRVS
TAF
KRVS 252320Z 2600/2624 16009KT P6SM SKC
     FM260200 17003KT P6SM SKC
     FM261500 20011G17KT P6SM FEW050=

USA.gov is the U.S. government's official web portal to all federal, state and local government web resources and services.